KL   EN   DA


ASIAQ
Weather Now GREENLAND SURVEY
Sorting:
Along the coast
Alphabetical
Location Updated [WGT/WGST] Temperature [°C] Wind [m/s] Air pressure [hPa] Relative humidity [%] Precipitation [mm]
PresentWind chillSpeedMax
Qaanaaq14.12 16:00-24,9-28,20,3 ⇐1,01008650,0
Kitsissut14.12 16:00-22,9-31,23,1 ⇖4,1100880n/a
Kitsissorsuit14.12 16:00-29,3-38,76,7 ⇘9,8100476n/a
Upernavik22.11 13:00-7,6-13,65,8 ⇓6,7990571,0
Qaarsut14.12 16:00-9,8-15,33,0 ⇗4,2990790,0
Nuussuaq14.12 16:00-8,6-17,17,2 ⇓10,399782n/a
Qeqertarsuaq14.12 15:00-5,6-7,91,4 ⇐2,5997740,0
Ilulissat14.12 16:00-7,8-14,85,2 ⇙6,899373n/a
Qasigiannguit14.12 16:00-9,2-15,64,0 ⇙5,9994740,0
Aasiaat14.12 16:00-3,8-9,95,3 ⇓7,7994760,0
Attu14.12 16:00-4,9-11,86,2 ⇙8,899685n/a
Kangerlussuaq14.12 16:00-19,4-26,62,9 ⇙3,4991820,0
Sisimiut14.12 16:00-8,6-15,50,7 ⇙1,7994720,0
Maniitsoq14.12 16:004,0-1,38,7 ⇙11,8983390,1
Sioralik14.12 16:001,9-2,95,7 ⇙8,298558n/a
Niaqornaa14.12 06:00-7,8-18,43,9 ⇙7,897582n/a
Kapisillit14.12 16:00-2,6-5,90,8 ⇑2,6978620,0
Nuuk Skibakke/Sisorarfiit14.12 16:00-0,1-3,32,7 ⇓7,194038n/a
Nuuk Airport14.12 16:00-0,7-6,25,8 ⇗12,497656n/a
Nuuk City14.12 16:00-1,0-8,29,6 ⇑14,4975690,1
Nuuk Siorarsiorfik14.12 13:50-1,1-6,75,3 ⇖6,497563n/a
Ukiivik14.12 16:00-1,8-9,08,8 ⇖11,398577n/a
Paamiut14.12 16:00-2,8-7,63,8 ⇐4,8984n/an/a
Narsarsuaq14.12 16:00-6,5-8,61,3 ⇙1,8986710,0
Narsaq14.12 16:00-2,2-5,70,7 ⇖1,8986780,0
Nunarsuit14.12 16:000,0-4,03,6 ⇖4,698586n/a
Qaqortoq14.12 16:00-2,0-6,81,1 ⇙2,5982750,0
Nanortalik08.12 04:00-0,5-3,12,0 ⇓4,41006750,0
Angisoq14.12 16:00-0,3-4,74,1 ⇘4,698786n/a
Prins Christian Sund14.12 16:002,2-2,76,1 ⇓16,2979610,5
Ikermiuarsuk14.12 16:000,7-4,45,7 ⇓6,298480n/a
Ikermit14.12 16:00-0,2-7,48,8 ⇒14,9981100n/a
Kulusuk14.12 16:00-0,1-1,71,0 ⇓1,7986920,0
Tasiilaq14.12 16:00-0,2-2,30,0 ⇓2,6984980,0
Aputiteeq14.12 16:00-0,6-5,44,6 ⇙5,799397n/a
Ittoqqortoormiit14.12 16:00-4,0-7,42,2 ⇙4,2987760,1
Nerlerit Inaat14.12 16:00-8,5-10,10,8 ⇑1,999584n/a
Daneborg14.12 16:00-8,6-11,61,5 ⇙2,199154n/a
Danmarkshavn14.12 16:00-16,4-22,20,6 ⇒2,1993680,1
Henrik Krøyer Holme13.12 22:00-15,2-23,64,6 ⇗5,199684n/a
Station Nord14.12 16:00-26,3-38,55,7 ⇗6,799777n/a
Kap Morris Jesup14.12 16:00-24,1-40,713,4 ⇒17,5100377n/a

Advanced version
Data source - Operated by - Disclaimer